sensor_id;sensor_type;location;lat;lon;timestamp;temperature;humidity
52787;DHT22;38661;53.152;5.846;2023-04-15T00:01:07;6.70;85.20
52787;DHT22;38661;53.152;5.846;2023-04-15T00:03:34;6.70;85.10
52787;DHT22;38661;53.152;5.846;2023-04-15T00:06:00;6.60;85.40
52787;DHT22;38661;53.152;5.846;2023-04-15T00:08:26;6.60;85.50
52787;DHT22;38661;53.152;5.846;2023-04-15T00:10:52;6.50;85.70
52787;DHT22;38661;53.152;5.846;2023-04-15T00:13:17;6.50;85.80
52787;DHT22;38661;53.152;5.846;2023-04-15T00:15:43;6.50;85.80
52787;DHT22;38661;53.152;5.846;2023-04-15T00:18:09;6.50;85.60
52787;DHT22;38661;53.152;5.846;2023-04-15T00:20:35;6.40;85.20
52787;DHT22;38661;53.152;5.846;2023-04-15T00:23:02;6.40;85.00
52787;DHT22;38661;53.152;5.846;2023-04-15T00:25:28;6.40;85.20
52787;DHT22;38661;53.152;5.846;2023-04-15T00:27:54;6.30;85.30
52787;DHT22;38661;53.152;5.846;2023-04-15T00:30:19;6.40;85.00
52787;DHT22;38661;53.152;5.846;2023-04-15T00:32:45;6.30;84.90
52787;DHT22;38661;53.152;5.846;2023-04-15T00:35:11;6.30;85.00
52787;DHT22;38661;53.152;5.846;2023-04-15T00:37:37;6.30;85.30
52787;DHT22;38661;53.152;5.846;2023-04-15T00:40:03;6.20;85.40
52787;DHT22;38661;53.152;5.846;2023-04-15T00:42:33;6.20;85.30
52787;DHT22;38661;53.152;5.846;2023-04-15T00:44:59;6.20;85.40
52787;DHT22;38661;53.152;5.846;2023-04-15T00:47:25;6.20;85.50
52787;DHT22;38661;53.152;5.846;2023-04-15T00:49:53;6.10;85.50
52787;DHT22;38661;53.152;5.846;2023-04-15T00:52:19;6.10;85.40
52787;DHT22;38661;53.152;5.846;2023-04-15T00:54:44;6.10;85.40
52787;DHT22;38661;53.152;5.846;2023-04-15T00:57:10;6.10;85.50
52787;DHT22;38661;53.152;5.846;2023-04-15T00:59:36;6.10;85.60
52787;DHT22;38661;53.152;5.846;2023-04-15T01:02:02;6.00;85.70
52787;DHT22;38661;53.152;5.846;2023-04-15T01:04:27;6.00;85.60
52787;DHT22;38661;53.152;5.846;2023-04-15T01:06:53;6.00;85.60
52787;DHT22;38661;53.152;5.846;2023-04-15T01:09:19;6.00;85.60
52787;DHT22;38661;53.152;5.846;2023-04-15T01:11:45;5.90;85.80
52787;DHT22;38661;53.152;5.846;2023-04-15T01:14:10;5.90;85.50
52787;DHT22;38661;53.152;5.846;2023-04-15T01:16:37;5.90;85.40
52787;DHT22;38661;53.152;5.846;2023-04-15T01:19:08;5.90;85.40
52787;DHT22;38661;53.152;5.846;2023-04-15T01:21:38;5.80;85.60
52787;DHT22;38661;53.152;5.846;2023-04-15T01:24:09;5.80;85.40
52787;DHT22;38661;53.152;5.846;2023-04-15T01:26:37;5.80;85.60
52787;DHT22;38661;53.152;5.846;2023-04-15T01:29:03;5.70;86.10
52787;DHT22;38661;53.152;5.846;2023-04-15T01:31:28;5.80;85.90
52787;DHT22;38661;53.152;5.846;2023-04-15T01:33:54;5.70;86.20
52787;DHT22;38661;53.152;5.846;2023-04-15T01:36:19;5.70;86.10
52787;DHT22;38661;53.152;5.846;2023-04-15T01:38:46;5.70;86.20
52787;DHT22;38661;53.152;5.846;2023-04-15T01:41:13;5.70;86.00
52787;DHT22;38661;53.152;5.846;2023-04-15T01:43:39;5.70;85.70
52787;DHT22;38661;53.152;5.846;2023-04-15T01:46:05;5.70;86.20
52787;DHT22;38661;53.152;5.846;2023-04-15T01:48:31;5.70;86.10
52787;DHT22;38661;53.152;5.846;2023-04-15T01:50:57;5.70;86.30
52787;DHT22;38661;53.152;5.846;2023-04-15T01:53:24;5.60;86.10
52787;DHT22;38661;53.152;5.846;2023-04-15T01:55:50;5.70;85.90
52787;DHT22;38661;53.152;5.846;2023-04-15T01:58:17;5.60;86.60
52787;DHT22;38661;53.152;5.846;2023-04-15T02:00:43;5.70;86.40
52787;DHT22;38661;53.152;5.846;2023-04-15T02:03:09;5.60;87.00
52787;DHT22;38661;53.152;5.846;2023-04-15T02:05:35;5.70;87.00
52787;DHT22;38661;53.152;5.846;2023-04-15T02:08:01;5.70;87.00
52787;DHT22;38661;53.152;5.846;2023-04-15T02:10:28;5.70;87.30
52787;DHT22;38661;53.152;5.846;2023-04-15T02:12:53;5.70;87.20
52787;DHT22;38661;53.152;5.846;2023-04-15T02:15:19;5.70;87.30
52787;DHT22;38661;53.152;5.846;2023-04-15T02:17:45;5.70;87.60
52787;DHT22;38661;53.152;5.846;2023-04-15T02:20:15;5.70;87.20
52787;DHT22;38661;53.152;5.846;2023-04-15T02:22:42;5.70;87.70
52787;DHT22;38661;53.152;5.846;2023-04-15T02:25:08;5.70;87.50
52787;DHT22;38661;53.152;5.846;2023-04-15T02:27:35;5.70;87.50
52787;DHT22;38661;53.152;5.846;2023-04-15T02:30:01;5.70;87.60
52787;DHT22;38661;53.152;5.846;2023-04-15T02:32:27;5.70;87.90
52787;DHT22;38661;53.152;5.846;2023-04-15T02:34:53;5.60;87.90
52787;DHT22;38661;53.152;5.846;2023-04-15T02:37:19;5.60;87.80
52787;DHT22;38661;53.152;5.846;2023-04-15T02:39:45;5.60;87.90
52787;DHT22;38661;53.152;5.846;2023-04-15T02:42:11;5.60;87.90
52787;DHT22;38661;53.152;5.846;2023-04-15T02:44:37;5.60;88.40
52787;DHT22;38661;53.152;5.846;2023-04-15T02:47:03;5.50;88.70
52787;DHT22;38661;53.152;5.846;2023-04-15T02:49:31;5.50;88.20
52787;DHT22;38661;53.152;5.846;2023-04-15T02:51:57;5.50;88.50
52787;DHT22;38661;53.152;5.846;2023-04-15T02:54:25;5.50;88.30
52787;DHT22;38661;53.152;5.846;2023-04-15T02:56:53;5.40;88.40
52787;DHT22;38661;53.152;5.846;2023-04-15T02:59:20;5.50;88.70
52787;DHT22;38661;53.152;5.846;2023-04-15T03:01:46;5.40;88.60
52787;DHT22;38661;53.152;5.846;2023-04-15T03:04:12;5.40;88.40
52787;DHT22;38661;53.152;5.846;2023-04-15T03:06:38;5.40;88.30
52787;DHT22;38661;53.152;5.846;2023-04-15T03:09:04;5.30;88.40
52787;DHT22;38661;53.152;5.846;2023-04-15T03:11:30;5.30;88.50
52787;DHT22;38661;53.152;5.846;2023-04-15T03:13:56;5.30;88.50
52787;DHT22;38661;53.152;5.846;2023-04-15T03:16:23;5.30;88.40
52787;DHT22;38661;53.152;5.846;2023-04-15T03:18:48;5.20;88.40
52787;DHT22;38661;53.152;5.846;2023-04-15T03:21:15;5.20;88.50
52787;DHT22;38661;53.152;5.846;2023-04-15T03:23:40;5.10;88.50
52787;DHT22;38661;53.152;5.846;2023-04-15T03:26:06;5.20;88.40
52787;DHT22;38661;53.152;5.846;2023-04-15T03:28:32;5.20;88.20
52787;DHT22;38661;53.152;5.846;2023-04-15T03:30:58;5.10;87.90
52787;DHT22;38661;53.152;5.846;2023-04-15T03:33:24;5.10;88.00
52787;DHT22;38661;53.152;5.846;2023-04-15T03:35:50;5.10;88.30
52787;DHT22;38661;53.152;5.846;2023-04-15T03:38:17;5.10;88.20
52787;DHT22;38661;53.152;5.846;2023-04-15T03:40:43;5.00;88.40
52787;DHT22;38661;53.152;5.846;2023-04-15T03:43:08;5.00;88.40
52787;DHT22;38661;53.152;5.846;2023-04-15T03:45:34;5.00;88.70
52787;DHT22;38661;53.152;5.846;2023-04-15T03:48:00;5.00;88.70
52787;DHT22;38661;53.152;5.846;2023-04-15T03:50:26;5.00;88.90
52787;DHT22;38661;53.152;5.846;2023-04-15T03:52:52;5.00;88.90
52787;DHT22;38661;53.152;5.846;2023-04-15T03:55:18;5.00;88.70
52787;DHT22;38661;53.152;5.846;2023-04-15T03:57:44;5.00;88.70
52787;DHT22;38661;53.152;5.846;2023-04-15T04:00:10;5.00;88.80
52787;DHT22;38661;53.152;5.846;2023-04-15T04:02:36;4.90;88.70
52787;DHT22;38661;53.152;5.846;2023-04-15T04:05:02;4.90;88.70
52787;DHT22;38661;53.152;5.846;2023-04-15T04:07:28;4.90;88.70
52787;DHT22;38661;53.152;5.846;2023-04-15T04:09:55;4.90;88.70
52787;DHT22;38661;53.152;5.846;2023-04-15T04:12:20;4.80;88.70
52787;DHT22;38661;53.152;5.846;2023-04-15T04:14:46;4.80;88.70
52787;DHT22;38661;53.152;5.846;2023-04-15T04:17:12;4.80;88.80
52787;DHT22;38661;53.152;5.846;2023-04-15T04:19:38;4.80;88.60
52787;DHT22;38661;53.152;5.846;2023-04-15T04:22:04;4.70;88.30
52787;DHT22;38661;53.152;5.846;2023-04-15T04:24:30;4.70;88.40
52787;DHT22;38661;53.152;5.846;2023-04-15T04:26:56;4.60;88.50
52787;DHT22;38661;53.152;5.846;2023-04-15T04:29:22;4.60;88.60
52787;DHT22;38661;53.152;5.846;2023-04-15T04:31:47;4.60;88.70
52787;DHT22;38661;53.152;5.846;2023-04-15T04:34:14;4.60;88.80
52787;DHT22;38661;53.152;5.846;2023-04-15T04:36:40;4.60;89.00
52787;DHT22;38661;53.152;5.846;2023-04-15T04:39:06;4.60;89.00
52787;DHT22;38661;53.152;5.846;2023-04-15T04:41:32;4.60;89.10
52787;DHT22;38661;53.152;5.846;2023-04-15T04:43:58;4.60;89.00
52787;DHT22;38661;53.152;5.846;2023-04-15T04:46:23;4.60;89.10
52787;DHT22;38661;53.152;5.846;2023-04-15T04:48:49;4.60;88.80
52787;DHT22;38661;53.152;5.846;2023-04-15T04:51:15;4.60;88.90
52787;DHT22;38661;53.152;5.846;2023-04-15T04:53:41;4.60;88.70
52787;DHT22;38661;53.152;5.846;2023-04-15T04:56:07;4.60;88.80
52787;DHT22;38661;53.152;5.846;2023-04-15T04:58:33;4.60;88.80
52787;DHT22;38661;53.152;5.846;2023-04-15T05:00:59;4.70;88.60
52787;DHT22;38661;53.152;5.846;2023-04-15T05:03:24;4.70;88.50
52787;DHT22;38661;53.152;5.846;2023-04-15T05:05:50;4.80;89.00
52787;DHT22;38661;53.152;5.846;2023-04-15T05:08:16;4.80;89.10
52787;DHT22;38661;53.152;5.846;2023-04-15T05:10:42;4.80;88.90
52787;DHT22;38661;53.152;5.846;2023-04-15T05:13:07;4.80;88.90
52787;DHT22;38661;53.152;5.846;2023-04-15T05:15:33;4.80;89.00
52787;DHT22;38661;53.152;5.846;2023-04-15T05:18:01;4.80;89.20
52787;DHT22;38661;53.152;5.846;2023-04-15T05:20:27;4.70;88.90
52787;DHT22;38661;53.152;5.846;2023-04-15T05:22:53;4.80;89.00
52787;DHT22;38661;53.152;5.846;2023-04-15T05:25:19;4.90;88.70
52787;DHT22;38661;53.152;5.846;2023-04-15T05:27:44;4.90;88.80
52787;DHT22;38661;53.152;5.846;2023-04-15T05:30:10;4.90;89.30
52787;DHT22;38661;53.152;5.846;2023-04-15T05:32:36;4.90;89.30
52787;DHT22;38661;53.152;5.846;2023-04-15T05:35:02;5.00;89.30
52787;DHT22;38661;53.152;5.846;2023-04-15T05:37:28;5.00;89.20
52787;DHT22;38661;53.152;5.846;2023-04-15T05:39:54;5.00;88.90
52787;DHT22;38661;53.152;5.846;2023-04-15T05:42:19;5.10;88.90
52787;DHT22;38661;53.152;5.846;2023-04-15T05:44:45;5.10;88.70
52787;DHT22;38661;53.152;5.846;2023-04-15T05:47:11;5.20;89.00
52787;DHT22;38661;53.152;5.846;2023-04-15T05:49:36;5.30;88.60
52787;DHT22;38661;53.152;5.846;2023-04-15T05:52:02;5.30;89.00
52787;DHT22;38661;53.152;5.846;2023-04-15T05:54:28;5.40;88.80
52787;DHT22;38661;53.152;5.846;2023-04-15T05:56:54;5.50;88.80
52787;DHT22;38661;53.152;5.846;2023-04-15T05:59:21;5.60;88.70
52787;DHT22;38661;53.152;5.846;2023-04-15T06:01:47;5.70;88.70
52787;DHT22;38661;53.152;5.846;2023-04-15T06:04:13;5.80;89.10
52787;DHT22;38661;53.152;5.846;2023-04-15T06:06:39;5.80;88.90
52787;DHT22;38661;53.152;5.846;2023-04-15T06:09:05;6.00;88.80
52787;DHT22;38661;53.152;5.846;2023-04-15T06:11:31;6.10;88.90
52787;DHT22;38661;53.152;5.846;2023-04-15T06:13:56;6.20;89.00
52787;DHT22;38661;53.152;5.846;2023-04-15T06:16:22;6.30;89.00
52787;DHT22;38661;53.152;5.846;2023-04-15T06:18:48;6.40;89.10
52787;DHT22;38661;53.152;5.846;2023-04-15T06:21:14;6.50;89.00
52787;DHT22;38661;53.152;5.846;2023-04-15T06:23:40;6.70;89.00
52787;DHT22;38661;53.152;5.846;2023-04-15T06:26:06;6.90;89.00
52787;DHT22;38661;53.152;5.846;2023-04-15T06:28:32;7.10;89.20
52787;DHT22;38661;53.152;5.846;2023-04-15T06:30:58;7.20;89.30
52787;DHT22;38661;53.152;5.846;2023-04-15T06:33:24;7.40;89.40
52787;DHT22;38661;53.152;5.846;2023-04-15T06:35:49;7.60;89.60
52787;DHT22;38661;53.152;5.846;2023-04-15T06:38:15;7.80;89.60
52787;DHT22;38661;53.152;5.846;2023-04-15T06:40:41;7.90;89.60
52787;DHT22;38661;53.152;5.846;2023-04-15T06:43:07;8.00;89.80
52787;DHT22;38661;53.152;5.846;2023-04-15T06:45:33;8.10;89.60
52787;DHT22;38661;53.152;5.846;2023-04-15T06:47:59;8.10;89.50
52787;DHT22;38661;53.152;5.846;2023-04-15T06:50:25;8.30;89.50
52787;DHT22;38661;53.152;5.846;2023-04-15T06:52:53;8.40;89.20
52787;DHT22;38661;53.152;5.846;2023-04-15T06:55:18;8.40;89.10
52787;DHT22;38661;53.152;5.846;2023-04-15T06:57:44;8.50;89.00
52787;DHT22;38661;53.152;5.846;2023-04-15T07:00:10;8.50;89.00
52787;DHT22;38661;53.152;5.846;2023-04-15T07:02:36;8.60;89.00
52787;DHT22;38661;53.152;5.846;2023-04-15T07:05:04;8.60;88.90
52787;DHT22;38661;53.152;5.846;2023-04-15T07:07:30;8.70;88.60
52787;DHT22;38661;53.152;5.846;2023-04-15T07:09:56;8.80;88.50
52787;DHT22;38661;53.152;5.846;2023-04-15T07:12:22;8.80;88.40
52787;DHT22;38661;53.152;5.846;2023-04-15T07:14:47;8.80;88.40
52787;DHT22;38661;53.152;5.846;2023-04-15T07:17:14;8.90;88.50
52787;DHT22;38661;53.152;5.846;2023-04-15T07:19:39;9.00;88.20
52787;DHT22;38661;53.152;5.846;2023-04-15T07:22:05;9.00;88.30
52787;DHT22;38661;53.152;5.846;2023-04-15T07:24:32;9.10;87.80
52787;DHT22;38661;53.152;5.846;2023-04-15T07:26:58;9.20;87.50
52787;DHT22;38661;53.152;5.846;2023-04-15T07:29:24;9.30;87.20
52787;DHT22;38661;53.152;5.846;2023-04-15T07:31:50;9.30;86.90
52787;DHT22;38661;53.152;5.846;2023-04-15T07:34:17;9.50;86.70
52787;DHT22;38661;53.152;5.846;2023-04-15T07:36:43;9.60;86.30
52787;DHT22;38661;53.152;5.846;2023-04-15T07:39:09;9.80;85.60
52787;DHT22;38661;53.152;5.846;2023-04-15T07:41:34;9.90;84.80
52787;DHT22;38661;53.152;5.846;2023-04-15T07:44:00;10.00;83.20
52787;DHT22;38661;53.152;5.846;2023-04-15T07:46:26;10.10;82.80
52787;DHT22;38661;53.152;5.846;2023-04-15T07:48:52;10.10;82.40
52787;DHT22;38661;53.152;5.846;2023-04-15T07:51:19;10.10;81.40
52787;DHT22;38661;53.152;5.846;2023-04-15T07:53:46;10.20;81.00
52787;DHT22;38661;53.152;5.846;2023-04-15T07:56:13;10.20;80.50
52787;DHT22;38661;53.152;5.846;2023-04-15T07:58:38;10.10;80.80
52787;DHT22;38661;53.152;5.846;2023-04-15T08:01:04;10.20;80.70
52787;DHT22;38661;53.152;5.846;2023-04-15T08:03:30;10.20;80.50
52787;DHT22;38661;53.152;5.846;2023-04-15T08:05:57;10.20;80.40
52787;DHT22;38661;53.152;5.846;2023-04-15T08:08:23;10.10;80.60
52787;DHT22;38661;53.152;5.846;2023-04-15T08:10:49;10.10;80.60
52787;DHT22;38661;53.152;5.846;2023-04-15T08:13:15;10.10;80.60
52787;DHT22;38661;53.152;5.846;2023-04-15T08:15:41;10.10;80.80
52787;DHT22;38661;53.152;5.846;2023-04-15T08:18:07;10.10;81.10
52787;DHT22;38661;53.152;5.846;2023-04-15T08:20:33;10.10;81.50
52787;DHT22;38661;53.152;5.846;2023-04-15T08:22:59;10.10;81.80
52787;DHT22;38661;53.152;5.846;2023-04-15T08:25:25;10.10;81.40
52787;DHT22;38661;53.152;5.846;2023-04-15T08:27:54;10.10;80.40
52787;DHT22;38661;53.152;5.846;2023-04-15T08:30:19;10.10;79.90
52787;DHT22;38661;53.152;5.846;2023-04-15T08:32:46;10.10;80.20
52787;DHT22;38661;53.152;5.846;2023-04-15T08:35:12;10.20;80.20
52787;DHT22;38661;53.152;5.846;2023-04-15T08:37:38;10.30;80.60
52787;DHT22;38661;53.152;5.846;2023-04-15T08:40:04;10.30;80.90
52787;DHT22;38661;53.152;5.846;2023-04-15T08:42:31;10.40;80.50
52787;DHT22;38661;53.152;5.846;2023-04-15T08:44:59;10.40;79.80
52787;DHT22;38661;53.152;5.846;2023-04-15T08:47:29;10.50;80.00
52787;DHT22;38661;53.152;5.846;2023-04-15T08:49:57;10.60;79.80
52787;DHT22;38661;53.152;5.846;2023-04-15T08:52:27;10.50;79.60
52787;DHT22;38661;53.152;5.846;2023-04-15T08:54:57;10.50;79.70
52787;DHT22;38661;53.152;5.846;2023-04-15T08:57:26;10.50;79.90
52787;DHT22;38661;53.152;5.846;2023-04-15T08:59:55;10.40;80.20
52787;DHT22;38661;53.152;5.846;2023-04-15T09:02:23;10.40;80.80
52787;DHT22;38661;53.152;5.846;2023-04-15T09:04:48;10.30;81.10
52787;DHT22;38661;53.152;5.846;2023-04-15T09:07:14;10.30;79.80
52787;DHT22;38661;53.152;5.846;2023-04-15T09:09:40;10.20;80.00
52787;DHT22;38661;53.152;5.846;2023-04-15T09:12:07;10.20;80.50
52787;DHT22;38661;53.152;5.846;2023-04-15T09:14:33;10.20;80.80
52787;DHT22;38661;53.152;5.846;2023-04-15T09:17:03;10.20;80.40
52787;DHT22;38661;53.152;5.846;2023-04-15T09:19:30;10.10;80.60
52787;DHT22;38661;53.152;5.846;2023-04-15T09:21:57;10.10;81.00
52787;DHT22;38661;53.152;5.846;2023-04-15T09:24:24;10.10;80.50
52787;DHT22;38661;53.152;5.846;2023-04-15T09:26:53;10.00;80.70
52787;DHT22;38661;53.152;5.846;2023-04-15T09:29:23;10.10;80.80
52787;DHT22;38661;53.152;5.846;2023-04-15T09:31:49;10.20;80.20
52787;DHT22;38661;53.152;5.846;2023-04-15T09:34:15;10.20;80.20
52787;DHT22;38661;53.152;5.846;2023-04-15T09:39:13;10.40;80.10
52787;DHT22;38661;53.152;5.846;2023-04-15T09:41:39;10.50;79.20
52787;DHT22;38661;53.152;5.846;2023-04-15T09:44:05;10.50;79.70
52787;DHT22;38661;53.152;5.846;2023-04-15T09:46:44;10.70;79.30
52787;DHT22;38661;53.152;5.846;2023-04-15T09:49:11;10.80;79.60
52787;DHT22;38661;53.152;5.846;2023-04-15T09:51:37;10.90;79.00
52787;DHT22;38661;53.152;5.846;2023-04-15T09:54:03;10.90;77.90
52787;DHT22;38661;53.152;5.846;2023-04-15T09:56:36;11.00;77.80
52787;DHT22;38661;53.152;5.846;2023-04-15T09:59:04;11.10;77.60
52787;DHT22;38661;53.152;5.846;2023-04-15T10:01:30;11.00;76.30
52787;DHT22;38661;53.152;5.846;2023-04-15T10:03:57;11.10;76.40
52787;DHT22;38661;53.152;5.846;2023-04-15T10:06:25;11.10;77.30
52787;DHT22;38661;53.152;5.846;2023-04-15T10:08:52;11.10;76.30
52787;DHT22;38661;53.152;5.846;2023-04-15T10:11:19;11.10;75.80
52787;DHT22;38661;53.152;5.846;2023-04-15T10:13:48;11.00;76.20
52787;DHT22;38661;53.152;5.846;2023-04-15T10:16:16;11.00;76.40
52787;DHT22;38661;53.152;5.846;2023-04-15T10:18:45;11.00;76.10
52787;DHT22;38661;53.152;5.846;2023-04-15T10:21:12;11.00;76.10
52787;DHT22;38661;53.152;5.846;2023-04-15T10:23:44;11.00;75.20
52787;DHT22;38661;53.152;5.846;2023-04-15T10:26:11;11.00;75.70
52787;DHT22;38661;53.152;5.846;2023-04-15T10:28:39;11.10;76.00
52787;DHT22;38661;53.152;5.846;2023-04-15T10:31:05;11.30;75.90
52787;DHT22;38661;53.152;5.846;2023-04-15T10:33:32;11.30;75.40
52787;DHT22;38661;53.152;5.846;2023-04-15T10:36:00;11.30;75.70
52787;DHT22;38661;53.152;5.846;2023-04-15T10:38:39;11.30;75.80
52787;DHT22;38661;53.152;5.846;2023-04-15T10:43:50;11.40;75.70
52787;DHT22;38661;53.152;5.846;2023-04-15T10:46:44;11.30;75.80
52787;DHT22;38661;53.152;5.846;2023-04-15T10:51:46;11.20;75.60
52787;DHT22;38661;53.152;5.846;2023-04-15T10:54:29;11.10;76.00
52787;DHT22;38661;53.152;5.846;2023-04-15T11:02:56;11.00;77.10
52787;DHT22;38661;53.152;5.846;2023-04-15T11:05:52;11.00;77.10
52787;DHT22;38661;53.152;5.846;2023-04-15T11:08:18;11.00;76.90
52787;DHT22;38661;53.152;5.846;2023-04-15T11:15:38;11.00;76.90
52787;DHT22;38661;53.152;5.846;2023-04-15T11:18:12;11.00;76.60
52787;DHT22;38661;53.152;5.846;2023-04-15T11:20:40;11.00;76.50
52787;DHT22;38661;53.152;5.846;2023-04-15T11:23:08;10.90;76.90
52787;DHT22;38661;53.152;5.846;2023-04-15T11:25:34;11.00;76.40
52787;DHT22;38661;53.152;5.846;2023-04-15T11:28:02;11.00;76.30
52787;DHT22;38661;53.152;5.846;2023-04-15T11:30:30;11.10;75.70
52787;DHT22;38661;53.152;5.846;2023-04-15T11:33:07;11.00;75.80
52787;DHT22;38661;53.152;5.846;2023-04-15T11:35:34;11.00;76.30
52787;DHT22;38661;53.152;5.846;2023-04-15T11:38:04;10.90;77.30
52787;DHT22;38661;53.152;5.846;2023-04-15T11:40:31;10.80;77.50
52787;DHT22;38661;53.152;5.846;2023-04-15T11:43:20;10.80;77.40
52787;DHT22;38661;53.152;5.846;2023-04-15T11:45:57;10.80;77.60
52787;DHT22;38661;53.152;5.846;2023-04-15T11:48:25;10.70;77.50
52787;DHT22;38661;53.152;5.846;2023-04-15T11:51:05;10.60;78.20
52787;DHT22;38661;53.152;5.846;2023-04-15T11:53:46;10.60;78.70
52787;DHT22;38661;53.152;5.846;2023-04-15T11:56:20;10.60;78.50
52787;DHT22;38661;53.152;5.846;2023-04-15T11:58:47;10.60;77.10
52787;DHT22;38661;53.152;5.846;2023-04-15T12:01:15;10.60;77.30
52787;DHT22;38661;53.152;5.846;2023-04-15T12:03:43;10.60;77.90
52787;DHT22;38661;53.152;5.846;2023-04-15T12:06:18;10.60;77.90
52787;DHT22;38661;53.152;5.846;2023-04-15T12:08:51;10.60;77.80
52787;DHT22;38661;53.152;5.846;2023-04-15T12:14:15;10.70;77.80
52787;DHT22;38661;53.152;5.846;2023-04-15T12:16:43;10.70;77.70
52787;DHT22;38661;53.152;5.846;2023-04-15T12:19:14;10.70;77.80
52787;DHT22;38661;53.152;5.846;2023-04-15T12:21:43;10.60;78.00
52787;DHT22;38661;53.152;5.846;2023-04-15T12:24:10;10.50;78.40
52787;DHT22;38661;53.152;5.846;2023-04-15T12:26:45;10.50;79.20
52787;DHT22;38661;53.152;5.846;2023-04-15T12:29:12;10.40;79.40
52787;DHT22;38661;53.152;5.846;2023-04-15T12:31:49;10.30;78.90
52787;DHT22;38661;53.152;5.846;2023-04-15T12:34:16;10.30;79.30
52787;DHT22;38661;53.152;5.846;2023-04-15T12:36:42;10.30;79.20
52787;DHT22;38661;53.152;5.846;2023-04-15T12:39:08;10.10;79.00
52787;DHT22;38661;53.152;5.846;2023-04-15T12:41:34;10.10;78.90
52787;DHT22;38661;53.152;5.846;2023-04-15T12:44:00;10.10;79.60
52787;DHT22;38661;53.152;5.846;2023-04-15T12:46:25;10.10;80.00
52787;DHT22;38661;53.152;5.846;2023-04-15T12:48:52;10.00;80.30
52787;DHT22;38661;53.152;5.846;2023-04-15T12:51:18;10.00;80.80
52787;DHT22;38661;53.152;5.846;2023-04-15T12:53:43;10.00;80.70
52787;DHT22;38661;53.152;5.846;2023-04-15T12:56:09;10.00;81.10
52787;DHT22;38661;53.152;5.846;2023-04-15T12:58:35;10.00;81.50
52787;DHT22;38661;53.152;5.846;2023-04-15T13:01:01;10.00;81.50
52787;DHT22;38661;53.152;5.846;2023-04-15T13:03:29;9.90;81.80
52787;DHT22;38661;53.152;5.846;2023-04-15T13:05:55;9.80;81.70
52787;DHT22;38661;53.152;5.846;2023-04-15T13:08:22;9.80;82.40
52787;DHT22;38661;53.152;5.846;2023-04-15T13:10:48;9.80;81.80
52787;DHT22;38661;53.152;5.846;2023-04-15T13:13:14;9.90;81.50
52787;DHT22;38661;53.152;5.846;2023-04-15T13:15:40;9.90;81.40
52787;DHT22;38661;53.152;5.846;2023-04-15T13:18:06;9.90;81.30
52787;DHT22;38661;53.152;5.846;2023-04-15T13:20:32;9.80;81.70
52787;DHT22;38661;53.152;5.846;2023-04-15T13:22:57;9.90;81.90
52787;DHT22;38661;53.152;5.846;2023-04-15T13:25:23;9.80;82.40
52787;DHT22;38661;53.152;5.846;2023-04-15T13:27:50;9.60;82.40
52787;DHT22;38661;53.152;5.846;2023-04-15T13:30:16;9.70;82.80
52787;DHT22;38661;53.152;5.846;2023-04-15T13:32:41;9.60;82.40
52787;DHT22;38661;53.152;5.846;2023-04-15T13:35:07;9.70;81.80
52787;DHT22;38661;53.152;5.846;2023-04-15T13:37:33;9.60;81.70
52787;DHT22;38661;53.152;5.846;2023-04-15T13:39:59;9.70;81.50
52787;DHT22;38661;53.152;5.846;2023-04-15T13:42:25;9.70;81.60
52787;DHT22;38661;53.152;5.846;2023-04-15T13:44:51;9.70;81.90
52787;DHT22;38661;53.152;5.846;2023-04-15T13:47:20;9.60;82.00
52787;DHT22;38661;53.152;5.846;2023-04-15T13:49:46;9.70;82.10
52787;DHT22;38661;53.152;5.846;2023-04-15T13:52:12;9.70;82.00
52787;DHT22;38661;53.152;5.846;2023-04-15T13:54:38;9.80;81.80
52787;DHT22;38661;53.152;5.846;2023-04-15T13:57:04;10.00;81.50
52787;DHT22;38661;53.152;5.846;2023-04-15T13:59:32;10.00;81.00
52787;DHT22;38661;53.152;5.846;2023-04-15T14:01:58;10.00;80.40
52787;DHT22;38661;53.152;5.846;2023-04-15T14:04:24;10.00;80.60
52787;DHT22;38661;53.152;5.846;2023-04-15T14:06:50;10.10;80.20
52787;DHT22;38661;53.152;5.846;2023-04-15T14:09:16;10.00;80.00
52787;DHT22;38661;53.152;5.846;2023-04-15T14:11:41;10.00;80.40
52787;DHT22;38661;53.152;5.846;2023-04-15T14:14:07;9.90;80.90
52787;DHT22;38661;53.152;5.846;2023-04-15T14:16:33;10.00;81.20
52787;DHT22;38661;53.152;5.846;2023-04-15T14:18:58;10.00;81.10
52787;DHT22;38661;53.152;5.846;2023-04-15T14:21:24;10.00;80.80
52787;DHT22;38661;53.152;5.846;2023-04-15T14:23:54;10.00;81.20
52787;DHT22;38661;53.152;5.846;2023-04-15T14:26:20;10.00;81.50
52787;DHT22;38661;53.152;5.846;2023-04-15T14:28:45;10.00;81.50
52787;DHT22;38661;53.152;5.846;2023-04-15T14:31:13;10.00;81.30
52787;DHT22;38661;53.152;5.846;2023-04-15T14:33:38;10.20;80.40
52787;DHT22;38661;53.152;5.846;2023-04-15T14:36:05;10.10;80.40
52787;DHT22;38661;53.152;5.846;2023-04-15T14:38:32;10.10;80.50
52787;DHT22;38661;53.152;5.846;2023-04-15T14:41:06;10.10;80.20
52787;DHT22;38661;53.152;5.846;2023-04-15T14:43:33;10.10;80.00
52787;DHT22;38661;53.152;5.846;2023-04-15T14:45:59;10.20;79.70
52787;DHT22;38661;53.152;5.846;2023-04-15T14:48:25;10.20;79.70
52787;DHT22;38661;53.152;5.846;2023-04-15T14:50:51;10.10;80.10
52787;DHT22;38661;53.152;5.846;2023-04-15T14:53:17;10.10;80.50
52787;DHT22;38661;53.152;5.846;2023-04-15T14:55:45;10.10;80.50
52787;DHT22;38661;53.152;5.846;2023-04-15T14:58:10;10.10;80.70
52787;DHT22;38661;53.152;5.846;2023-04-15T15:00:39;9.90;80.60
52787;DHT22;38661;53.152;5.846;2023-04-15T15:03:09;9.90;80.60
52787;DHT22;38661;53.152;5.846;2023-04-15T15:05:39;10.00;80.90
52787;DHT22;38661;53.152;5.846;2023-04-15T15:08:08;9.90;81.20
52787;DHT22;38661;53.152;5.846;2023-04-15T15:10:35;9.90;81.10
52787;DHT22;38661;53.152;5.846;2023-04-15T15:13:06;9.80;81.40
52787;DHT22;38661;53.152;5.846;2023-04-15T15:15:32;9.80;81.60
52787;DHT22;38661;53.152;5.846;2023-04-15T15:17:58;9.80;81.70
52787;DHT22;38661;53.152;5.846;2023-04-15T15:20:24;9.80;81.70
52787;DHT22;38661;53.152;5.846;2023-04-15T15:22:50;9.80;81.90
52787;DHT22;38661;53.152;5.846;2023-04-15T15:25:16;9.70;81.70
52787;DHT22;38661;53.152;5.846;2023-04-15T15:27:42;9.70;82.00
52787;DHT22;38661;53.152;5.846;2023-04-15T15:30:09;9.70;82.00
52787;DHT22;38661;53.152;5.846;2023-04-15T15:32:37;9.70;82.10
52787;DHT22;38661;53.152;5.846;2023-04-15T15:35:02;9.70;82.30
52787;DHT22;38661;53.152;5.846;2023-04-15T15:37:29;9.70;82.30
52787;DHT22;38661;53.152;5.846;2023-04-15T15:40:04;9.70;82.20
52787;DHT22;38661;53.152;5.846;2023-04-15T15:42:33;9.60;82.60
52787;DHT22;38661;53.152;5.846;2023-04-15T15:44:59;9.60;82.70
52787;DHT22;38661;53.152;5.846;2023-04-15T15:47:25;9.60;82.60
52787;DHT22;38661;53.152;5.846;2023-04-15T15:49:52;9.60;82.60
52787;DHT22;38661;53.152;5.846;2023-04-15T15:52:17;9.60;82.90
52787;DHT22;38661;53.152;5.846;2023-04-15T15:54:43;9.60;82.90
52787;DHT22;38661;53.152;5.846;2023-04-15T15:57:09;9.60;83.10
52787;DHT22;38661;53.152;5.846;2023-04-15T15:59:35;9.60;83.00